Aviation Digital Data Service (ADDS)

Output produced by METARs form (1756 UTC 21 September 2019)
found at http://aviationweather.gov/metar/data/
 
KHKS 211720Z 2118/2218 15010G18KT P6SM FEW060 
     FM220000 13005KT P6SM FEW060